UMMG

Hrodna Airport

Airport
ICAO code
UMMG
IATA Code
GNA
Summary
ICAO Region
EUR
ICAO Territory
Location

Hrodna, Grodno Region

Serving
Grodno
Elevation
443 ft
Coordinates
53° 36' 7" N , 24° 3' 14" E
KCC
Metar
UMMG 241200Z 16006G09MPS CAVOK 11/06 Q1005 NOSIG

Hrodna Airport is an airport that serves Grodno, Belarus.

Climatology

Humid continental climate (Köppen climate classification Dfb)

Runways

Designator Length Width Surface Rops
9/27 662 28 ASP No/No
17/35 2560 42 CON No/No

Airport map

Aerial View

SKYbrary Partners:

Safety knowledge contributed by: